createdAt,value
2023-04-01T00:00:04.549Z,82.87
2023-04-01T00:02:33.691Z,83.52
2023-04-01T00:05:02.807Z,83.24
2023-04-01T00:07:32.462Z,82.75
2023-04-01T00:10:01.245Z,82.60
2023-04-01T00:12:30.449Z,82.35
2023-04-01T00:15:00.369Z,82.32
2023-04-01T00:17:29.665Z,82.57
2023-04-01T00:19:59.084Z,82.95
2023-04-01T00:22:28.100Z,83.05
2023-04-01T00:24:56.887Z,82.97
2023-04-01T00:27:25.870Z,83.30
2023-04-01T00:29:54.581Z,82.85
2023-04-01T00:32:23.666Z,82.73
2023-04-01T00:34:54.264Z,82.82
2023-04-01T00:37:23.407Z,83.17
2023-04-01T00:39:52.556Z,83.43
2023-04-01T00:42:21.613Z,83.26
2023-04-01T00:44:53.232Z,83.19
2023-04-01T00:47:23.232Z,83.76
2023-04-01T00:49:55.155Z,84.01
2023-04-01T00:52:27.668Z,83.92
2023-04-01T00:55:01.677Z,83.74
2023-04-01T00:57:36.889Z,83.55
2023-04-01T01:00:10.580Z,83.71
2023-04-01T01:02:42.439Z,83.59
2023-04-01T01:05:14.781Z,82.83
2023-04-01T01:07:53.663Z,82.85
2023-04-01T01:10:31.004Z,82.97
2023-04-01T01:13:07.298Z,82.44
2023-04-01T01:15:41.014Z,82.03
2023-04-01T01:18:20.758Z,82.08
2023-04-01T01:21:32.236Z,82.33
2023-04-01T01:24:14.747Z,82.66
2023-04-01T01:26:54.665Z,82.50
2023-04-01T01:29:46.235Z,82.73
2023-04-01T01:32:25.489Z,83.00
2023-04-01T01:34:59.181Z,83.15
2023-04-01T01:37:31.010Z,82.89
2023-04-01T01:40:03.380Z,82.41
2023-04-01T01:42:36.185Z,82.48
2023-04-01T01:45:08.799Z,82.65
2023-04-01T01:47:38.588Z,82.99
2023-04-01T01:50:11.255Z,82.71
2023-04-01T01:52:40.353Z,82.67
2023-04-01T01:55:28.883Z,82.54
2023-04-01T01:58:00.717Z,82.59
2023-04-01T02:00:30.635Z,82.31
2023-04-01T02:03:00.347Z,82.33
2023-04-01T02:05:31.324Z,82.66
2023-04-01T02:08:07.018Z,82.76
2023-04-01T02:10:41.319Z,82.46
2023-04-01T02:13:17.793Z,82.61
2023-04-01T02:15:49.487Z,82.98
2023-04-01T02:18:20.546Z,83.40
2023-04-01T02:20:50.691Z,83.17
2023-04-01T02:23:19.605Z,83.01
2023-04-01T02:25:49.376Z,83.06
2023-04-01T02:28:21.036Z,83.11
2023-04-01T02:30:53.420Z,83.50
2023-04-01T02:33:23.228Z,82.85
2023-04-01T02:35:52.332Z,82.48
2023-04-01T02:38:21.372Z,82.51
2023-04-01T02:40:52.645Z,82.28
2023-04-01T02:43:24.615Z,82.50
2023-04-01T02:45:53.774Z,82.40
2023-04-01T02:48:22.442Z,82.68
2023-04-01T02:50:51.691Z,82.96
2023-04-01T02:53:20.546Z,82.88
2023-04-01T02:55:51.120Z,82.85
2023-04-01T02:58:20.647Z,82.79
2023-04-01T03:00:49.525Z,82.69
2023-04-01T03:03:18.612Z,83.10
2023-04-01T03:05:47.414Z,83.02
2023-04-01T03:08:16.132Z,82.91
2023-04-01T03:10:44.905Z,82.59
2023-04-01T03:13:13.821Z,82.65
2023-04-01T03:15:42.655Z,82.45
2023-04-01T03:18:11.776Z,82.46
2023-04-01T03:20:40.637Z,83.09
2023-04-01T03:23:11.434Z,82.80
2023-04-01T03:25:40.446Z,83.39
2023-04-01T03:28:11.455Z,83.53
2023-04-01T03:30:44.406Z,83.38
2023-04-01T03:33:17.292Z,82.83
2023-04-01T03:36:01.648Z,83.12
2023-04-01T03:38:31.998Z,82.58
2023-04-01T03:41:01.181Z,82.28
2023-04-01T03:43:31.214Z,83.01
2023-04-01T03:46:00.324Z,83.30
2023-04-01T03:48:29.355Z,83.26
2023-04-01T03:50:59.340Z,83.49
2023-04-01T03:53:29.894Z,83.18
2023-04-01T03:55:59.572Z,82.69
2023-04-01T03:58:29.439Z,83.03
2023-04-01T04:00:58.485Z,83.02
2023-04-01T04:03:28.806Z,82.82
2023-04-01T04:05:57.799Z,82.64
2023-04-01T04:08:26.887Z,82.97
2023-04-01T04:10:58.463Z,83.34
2023-04-01T04:13:28.727Z,83.62
2023-04-01T04:15:59.757Z,84.00
2023-04-01T04:18:28.590Z,84.04
2023-04-01T04:20:58.103Z,84.01
2023-04-01T04:23:29.166Z,84.14
2023-04-01T04:26:00.432Z,84.20
2023-04-01T04:28:30.508Z,84.46
2023-04-01T04:31:00.415Z,84.68
2023-04-01T04:33:29.390Z,84.65
2023-04-01T04:36:00.129Z,84.40
2023-04-01T04:38:29.599Z,84.67
2023-04-01T04:40:58.658Z,84.33
2023-04-01T04:43:28.771Z,84.11
2023-04-01T04:45:58.627Z,84.26
2023-04-01T04:48:27.954Z,84.29
2023-04-01T04:50:57.070Z,84.35
2023-04-01T04:53:26.773Z,84.40
2023-04-01T04:55:56.131Z,84.35
2023-04-01T04:58:25.116Z,84.39
2023-04-01T05:00:54.022Z,84.81
2023-04-01T05:03:23.310Z,84.89
2023-04-01T05:05:54.828Z,85.15
2023-04-01T05:08:24.251Z,85.22
2023-04-01T05:10:53.718Z,85.21
2023-04-01T05:13:23.624Z,85.37
2023-04-01T05:15:52.877Z,84.91
2023-04-01T05:18:22.225Z,84.39
2023-04-01T05:20:53.510Z,84.34
2023-04-01T05:23:23.838Z,84.09
2023-04-01T05:25:53.410Z,84.15
2023-04-01T05:28:22.821Z,84.37
2023-04-01T05:30:52.451Z,84.47
2023-04-01T05:33:22.009Z,84.49
2023-04-01T05:35:51.183Z,84.41
2023-04-01T05:38:20.533Z,84.49
2023-04-01T05:40:49.716Z,84.75
2023-04-01T05:43:20.429Z,84.99
2023-04-01T05:45:51.354Z,85.21
2023-04-01T05:48:21.601Z,84.93
2023-04-01T05:50:50.581Z,84.46
2023-04-01T05:53:20.153Z,84.26
2023-04-01T05:55:50.322Z,84.53
2023-04-01T05:58:20.231Z,84.62
2023-04-01T06:01:02.356Z,84.24
2023-04-01T06:03:37.752Z,83.53
2023-04-01T06:06:13.628Z,83.69
2023-04-01T06:08:43.264Z,83.98
2023-04-01T06:11:24.410Z,83.87
2023-04-01T06:14:11.460Z,83.79
2023-04-01T06:16:55.802Z,83.44
2023-04-01T06:19:37.872Z,83.13
2023-04-01T06:22:37.042Z,83.19
2023-04-01T06:25:24.539Z,82.88
2023-04-01T06:28:09.010Z,82.67
2023-04-01T06:30:45.340Z,82.76
2023-04-01T06:33:30.791Z,82.95
2023-04-01T06:36:12.793Z,83.10
2023-04-01T06:39:03.522Z,83.15
2023-04-01T06:42:20.235Z,82.17
2023-04-01T06:45:00.505Z,82.23
2023-04-01T06:47:47.400Z,82.26
2023-04-01T06:50:26.765Z,82.39
2023-04-01T06:53:05.728Z,82.47
2023-04-01T06:55:43.121Z,82.39
2023-04-01T06:58:22.489Z,82.43
2023-04-01T07:00:54.991Z,82.65
2023-04-01T07:03:30.567Z,82.51
2023-04-01T07:06:04.572Z,82.28
2023-04-01T07:08:37.895Z,82.63
2023-04-01T07:11:10.673Z,82.73
2023-04-01T07:16:21.761Z,82.41
2023-04-01T07:18:51.277Z,82.23
2023-04-01T07:21:32.038Z,81.95
2023-04-01T07:24:08.077Z,81.49
2023-04-01T07:26:38.849Z,81.11
2023-04-01T07:29:13.722Z,80.94
2023-04-01T07:31:54.782Z,81.28
2023-04-01T07:34:27.338Z,82.02
2023-04-01T07:37:02.870Z,81.75
2023-04-01T07:39:44.402Z,81.34
2023-04-01T07:42:23.213Z,81.32
2023-04-01T07:45:00.422Z,80.93
2023-04-01T07:47:52.307Z,80.99
2023-04-01T07:50:29.823Z,81.20
2023-04-01T07:53:12.291Z,81.15
2023-04-01T07:55:49.687Z,81.08
2023-04-01T07:58:27.854Z,80.36
2023-04-01T08:01:03.027Z,80.24
2023-04-01T08:03:50.457Z,80.46
2023-04-01T08:06:26.855Z,80.64
2023-04-01T08:09:03.961Z,80.25
2023-04-01T08:11:48.946Z,79.84
2023-04-01T08:14:25.817Z,80.08
2023-04-01T08:17:03.896Z,80.21
2023-04-01T08:19:52.867Z,80.42
2023-04-01T08:22:28.150Z,80.29
2023-04-01T08:25:03.387Z,80.08
2023-04-01T08:27:38.366Z,79.97
2023-04-01T08:30:18.965Z,80.00
2023-04-01T08:32:54.837Z,80.66
2023-04-01T08:35:32.942Z,80.44
2023-04-01T08:38:13.112Z,80.59
2023-04-01T08:41:04.654Z,80.44
2023-04-01T08:43:53.003Z,80.35
2023-04-01T08:46:44.034Z,80.57
2023-04-01T08:49:26.995Z,80.76
2023-04-01T08:52:14.024Z,80.16
2023-04-01T08:55:06.340Z,80.15
2023-04-01T08:57:47.241Z,80.27
2023-04-01T09:00:27.511Z,79.75
2023-04-01T09:03:33.996Z,79.64
2023-04-01T09:06:35.387Z,79.25
2023-04-01T09:09:39.840Z,78.78
2023-04-01T09:12:32.664Z,78.50
2023-04-01T09:15:36.944Z,77.79
2023-04-01T09:18:30.405Z,78.04
2023-04-01T09:21:46.674Z,78.35
2023-04-01T09:24:42.420Z,77.89
2023-04-01T09:27:26.211Z,78.03
2023-04-01T09:30:20.499Z,78.31
2023-04-01T09:33:33.611Z,78.82
2023-04-01T09:36:13.860Z,78.78
2023-04-01T09:38:57.148Z,79.04
2023-04-01T09:41:32.618Z,79.34
2023-04-01T09:44:05.746Z,79.50
2023-04-01T09:46:55.028Z,80.26
2023-04-01T09:49:45.434Z,80.14
2023-04-01T09:52:28.993Z,79.92
2023-04-01T09:55:18.741Z,79.61
2023-04-01T09:58:18.418Z,79.86
2023-04-01T10:00:56.765Z,80.50
2023-04-01T10:04:08.878Z,80.65
2023-04-01T10:06:58.721Z,80.55
2023-04-01T10:10:09.741Z,80.30
2023-04-01T10:13:14.028Z,80.42
2023-04-01T10:16:24.353Z,80.62
2023-04-01T10:19:37.728Z,80.58
2023-04-01T10:22:31.796Z,80.23
2023-04-01T10:25:18.315Z,80.09
2023-04-01T10:28:35.294Z,79.87
2023-04-01T10:31:37.265Z,80.29
2023-04-01T10:34:37.717Z,79.89
2023-04-01T10:37:14.597Z,80.19
2023-04-01T10:40:26.083Z,80.44
2023-04-01T10:43:34.586Z,79.89
2023-04-01T10:46:48.505Z,79.90
2023-04-01T10:49:47.442Z,80.16
2023-04-01T10:53:13.369Z,80.06
2023-04-01T10:56:07.420Z,80.51
2023-04-01T10:59:08.479Z,80.49
2023-04-01T11:02:11.913Z,80.75
2023-04-01T11:05:24.092Z,81.47
2023-04-01T11:08:24.421Z,81.00
2023-04-01T11:11:45.866Z,80.65
2023-04-01T11:14:46.673Z,81.01
2023-04-01T11:17:43.902Z,81.08
2023-04-01T11:20:34.027Z,80.21
2023-04-01T11:23:28.883Z,80.45
2023-04-01T11:26:09.164Z,79.61
2023-04-01T11:29:01.527Z,79.75
2023-04-01T11:31:41.623Z,80.08
2023-04-01T11:34:23.735Z,80.39
2023-04-01T11:37:12.774Z,80.32
2023-04-01T11:40:01.604Z,80.04
2023-04-01T11:42:42.669Z,79.80
2023-04-01T11:45:26.594Z,80.04
2023-04-01T11:48:23.512Z,79.31
2023-04-01T11:51:19.890Z,78.73
2023-04-01T11:54:07.245Z,78.73
2023-04-01T11:57:00.612Z,78.35
2023-04-01T11:59:50.440Z,78.25
2023-04-01T12:02:32.241Z,78.63
2023-04-01T12:05:40.293Z,78.14
2023-04-01T12:08:26.712Z,77.74
2023-04-01T12:11:02.655Z,76.79
2023-04-01T12:13:41.698Z,76.22
2023-04-01T12:16:39.208Z,76.46
2023-04-01T12:19:20.037Z,76.77
2023-04-01T12:22:02.083Z,76.34
2023-04-01T12:24:49.232Z,76.23
2023-04-01T12:27:44.581Z,76.25
2023-04-01T12:30:26.247Z,76.01
2023-04-01T12:33:13.116Z,75.89
2023-04-01T12:35:56.670Z,75.92
2023-04-01T12:38:37.495Z,75.40
2023-04-01T12:41:19.143Z,75.42
2023-04-01T12:44:10.476Z,75.31
2023-04-01T12:46:54.315Z,75.22
2023-04-01T12:49:46.491Z,75.13
2023-04-01T12:52:23.253Z,74.94
2023-04-01T12:55:13.764Z,74.94
2023-04-01T12:58:24.260Z,74.89
2023-04-01T13:01:10.588Z,74.05
2023-04-01T13:03:54.841Z,72.88
2023-04-01T13:06:34.304Z,72.87
2023-04-01T13:09:18.174Z,72.86
2023-04-01T13:12:02.321Z,72.63
2023-04-01T13:15:13.424Z,71.69
2023-04-01T13:17:51.947Z,71.65
2023-04-01T13:20:35.836Z,71.53
2023-04-01T13:23:20.407Z,71.73
2023-04-01T13:26:10.809Z,71.73
2023-04-01T13:28:49.029Z,71.92
2023-04-01T13:31:31.363Z,72.09
2023-04-01T13:34:15.090Z,71.44
2023-04-01T13:36:55.741Z,70.58
2023-04-01T13:39:37.298Z,70.71
2023-04-01T13:42:17.155Z,71.15
2023-04-01T13:44:51.156Z,70.43
2023-04-01T13:47:34.333Z,69.90
2023-04-01T13:50:17.493Z,69.98
2023-04-01T13:53:02.090Z,70.27
2023-04-01T13:55:59.122Z,71.09
2023-04-01T13:58:46.851Z,71.65
2023-04-01T14:01:25.254Z,71.18
2023-04-01T14:04:06.261Z,71.31
2023-04-01T14:06:50.960Z,71.68
2023-04-01T14:09:36.680Z,71.72
2023-04-01T14:12:16.209Z,71.89
2023-04-01T14:15:06.404Z,72.27
2023-04-01T14:17:48.825Z,72.90
2023-04-01T14:20:34.927Z,72.56
2023-04-01T14:23:34.840Z,72.42
2023-04-01T14:26:17.800Z,72.58
2023-04-01T14:29:00.876Z,72.50
2023-04-01T14:31:47.256Z,72.68
2023-04-01T14:34:28.198Z,72.86
2023-04-01T14:37:14.492Z,72.91
2023-04-01T14:40:09.316Z,72.91
2023-04-01T14:42:57.106Z,72.99
2023-04-01T14:45:46.565Z,72.65
2023-04-01T14:48:26.509Z,73.65
2023-04-01T14:51:03.503Z,74.09
2023-04-01T14:53:39.353Z,74.23
2023-04-01T14:56:08.926Z,74.20
2023-04-01T14:58:47.114Z,74.84
2023-04-01T15:01:42.958Z,75.09
2023-04-01T15:04:37.280Z,75.07
2023-04-01T15:07:23.311Z,75.10
2023-04-01T15:10:03.472Z,74.99
2023-04-01T15:12:45.084Z,75.52
2023-04-01T15:15:31.957Z,76.19
2023-04-01T15:18:12.554Z,77.09
2023-04-01T15:21:13.481Z,77.36
2023-04-01T15:23:52.766Z,77.65
2023-04-01T15:26:33.435Z,77.42
2023-04-01T15:29:21.532Z,77.82
2023-04-01T15:31:58.751Z,77.76
2023-04-01T15:34:38.736Z,77.80
2023-04-01T15:37:14.694Z,77.91
2023-04-01T15:39:54.993Z,78.25
2023-04-01T15:42:40.842Z,77.96
2023-04-01T15:45:34.864Z,78.37
2023-04-01T15:48:21.615Z,78.75
2023-04-01T15:51:02.837Z,78.36
2023-04-01T15:54:06.955Z,78.40
2023-04-01T15:56:46.620Z,78.14
2023-04-01T15:59:30.497Z,78.04
2023-04-01T16:02:11.985Z,77.83
2023-04-01T16:04:51.865Z,77.93
2023-04-01T16:07:37.669Z,77.93
2023-04-01T16:10:24.242Z,77.83
2023-04-01T16:13:05.776Z,77.13
2023-04-01T16:15:46.015Z,77.16
2023-04-01T16:18:34.314Z,77.15
2023-04-01T16:21:11.062Z,77.29
2023-04-01T16:23:49.118Z,77.37
2023-04-01T16:26:24.975Z,77.41
2023-04-01T16:29:00.616Z,77.58
2023-04-01T16:31:37.726Z,77.38
2023-04-01T16:34:16.945Z,77.14
2023-04-01T16:36:49.849Z,76.90
2023-04-01T16:39:40.299Z,76.73
2023-04-01T16:42:21.191Z,77.02
2023-04-01T16:44:57.614Z,77.02
2023-04-01T16:47:31.999Z,76.68
2023-04-01T16:50:11.721Z,76.66
2023-04-01T16:53:01.111Z,76.66
2023-04-01T16:55:51.525Z,76.32
2023-04-01T16:58:36.739Z,76.38
2023-04-01T17:01:14.195Z,76.00
2023-04-01T17:03:48.529Z,75.93
2023-04-01T17:06:32.024Z,76.03
2023-04-01T17:09:23.701Z,75.79
2023-04-01T17:12:02.247Z,75.54
2023-04-01T17:14:41.994Z,75.39
2023-04-01T17:17:30.758Z,75.84
2023-04-01T17:20:17.884Z,75.43
2023-04-01T17:22:59.764Z,75.59
2023-04-01T17:25:55.011Z,75.50
2023-04-01T17:28:37.119Z,75.72
2023-04-01T17:31:15.836Z,75.73
2023-04-01T17:34:07.092Z,76.14
2023-04-01T17:36:55.090Z,76.11
2023-04-01T17:39:42.566Z,75.70
2023-04-01T17:42:22.849Z,75.93
2023-04-01T17:45:03.294Z,75.77
2023-04-01T17:47:51.276Z,76.03
2023-04-01T17:50:30.889Z,76.20
2023-04-01T17:53:16.432Z,76.44
2023-04-01T17:56:06.155Z,76.25
2023-04-01T17:58:50.191Z,76.81
2023-04-01T18:01:33.446Z,76.99
2023-04-01T18:04:27.695Z,77.19
2023-04-01T18:07:29.351Z,77.39
2023-04-01T18:10:18.569Z,77.26
2023-04-01T18:13:12.541Z,77.09
2023-04-01T18:15:55.061Z,77.35
2023-04-01T18:18:47.579Z,77.24
2023-04-01T18:21:30.750Z,77.38
2023-04-01T18:24:07.722Z,77.48
2023-04-01T18:26:52.460Z,77.45
2023-04-01T18:29:35.650Z,77.05
2023-04-01T18:32:21.016Z,76.88
2023-04-01T18:35:06.090Z,77.26
2023-04-01T18:37:44.335Z,77.52
2023-04-01T18:40:25.527Z,77.57
2023-04-01T18:43:12.873Z,77.72
2023-04-01T18:45:52.812Z,78.04
2023-04-01T18:48:44.717Z,78.22
2023-04-01T18:51:23.105Z,78.63
2023-04-01T18:53:59.983Z,78.43
2023-04-01T18:56:36.520Z,78.22
2023-04-01T18:59:13.073Z,78.85
2023-04-01T19:01:52.811Z,79.58
2023-04-01T19:04:32.692Z,79.70
2023-04-01T19:07:19.777Z,79.40
2023-04-01T19:09:53.737Z,79.38
2023-04-01T19:12:44.929Z,79.67
2023-04-01T19:15:30.464Z,80.08
2023-04-01T19:18:21.018Z,79.96
2023-04-01T19:20:59.197Z,79.62
2023-04-01T19:23:54.896Z,79.36
2023-04-01T19:26:32.165Z,79.16
2023-04-01T19:29:14.163Z,79.42
2023-04-01T19:32:00.491Z,79.79
2023-04-01T19:34:47.242Z,79.76
2023-04-01T19:37:33.576Z,79.75
2023-04-01T19:40:34.349Z,79.47
2023-04-01T19:43:10.493Z,79.42
2023-04-01T19:45:46.758Z,79.12
2023-04-01T19:48:39.148Z,79.16
2023-04-01T19:51:15.488Z,79.36
2023-04-01T19:53:57.997Z,79.23
2023-04-01T19:56:40.742Z,79.27
2023-04-01T19:59:23.470Z,79.36
2023-04-01T20:02:01.087Z,79.65
2023-04-01T20:04:35.641Z,79.76
2023-04-01T20:07:13.457Z,79.81
2023-04-01T20:09:52.960Z,78.72
2023-04-01T20:12:41.406Z,79.11
2023-04-01T20:15:28.878Z,79.32
2023-04-01T20:18:02.965Z,79.43
2023-04-01T20:20:35.075Z,79.31
2023-04-01T20:23:41.347Z,79.92
2023-04-01T20:26:13.457Z,80.23
2023-04-01T20:28:51.792Z,80.37
2023-04-01T20:31:32.930Z,80.54
2023-04-01T20:34:25.747Z,80.68
2023-04-01T20:37:11.521Z,80.63
2023-04-01T20:40:20.496Z,80.29
2023-04-01T20:43:11.701Z,80.26
2023-04-01T20:45:50.343Z,80.34
2023-04-01T20:48:50.767Z,80.08
2023-04-01T20:51:26.367Z,80.18
2023-04-01T20:54:07.037Z,79.24
2023-04-01T20:56:50.321Z,79.33
2023-04-01T20:59:37.513Z,79.57
2023-04-01T21:02:32.806Z,80.20
2023-04-01T21:05:44.937Z,80.41
2023-04-01T21:08:19.701Z,80.51
2023-04-01T21:10:51.493Z,80.68
2023-04-01T21:13:37.548Z,80.53
2023-04-01T21:16:27.637Z,81.10
2023-04-01T21:19:09.926Z,81.02
2023-04-01T21:22:06.494Z,81.41
2023-04-01T21:25:15.983Z,81.37
2023-04-01T21:28:11.654Z,81.24
2023-04-01T21:30:58.851Z,81.05
2023-04-01T21:33:47.377Z,80.99
2023-04-01T21:36:31.579Z,80.89
2023-04-01T21:39:24.207Z,80.57
2023-04-01T21:42:06.843Z,80.86
2023-04-01T21:45:03.597Z,80.76
2023-04-01T21:48:06.716Z,80.53
2023-04-01T21:51:04.314Z,80.62
2023-04-01T21:54:21.454Z,80.22
2023-04-01T21:57:27.634Z,80.58
2023-04-01T22:00:21.582Z,80.68
2023-04-01T22:03:27.939Z,81.12
2023-04-01T22:06:07.382Z,80.53
2023-04-01T22:08:58.183Z,80.35
2023-04-01T22:11:40.003Z,80.66
2023-04-01T22:14:16.195Z,80.65
2023-04-01T22:16:50.788Z,80.99
2023-04-01T22:19:27.292Z,81.11
2023-04-01T22:22:03.002Z,81.62
2023-04-01T22:24:42.471Z,81.59
2023-04-01T22:27:20.885Z,81.50
2023-04-01T22:30:01.036Z,81.29
2023-04-01T22:32:37.858Z,80.98
2023-04-01T22:35:14.328Z,80.92
2023-04-01T22:37:55.925Z,81.04
2023-04-01T22:40:28.954Z,81.37
2023-04-01T22:43:03.034Z,81.34
2023-04-01T22:45:51.378Z,81.73
2023-04-01T22:48:28.862Z,81.80
2023-04-01T22:51:04.822Z,81.65
2023-04-01T22:53:49.017Z,81.35
2023-04-01T22:56:23.275Z,81.39
2023-04-01T22:58:58.254Z,81.91
2023-04-01T23:01:30.547Z,82.16
2023-04-01T23:04:01.277Z,82.04
2023-04-01T23:06:34.770Z,82.73
2023-04-01T23:09:16.644Z,82.97
2023-04-01T23:11:53.006Z,83.34
2023-04-01T23:14:47.371Z,83.61
2023-04-01T23:17:32.244Z,83.90
2023-04-01T23:20:13.030Z,83.86
2023-04-01T23:22:51.057Z,83.99
2023-04-01T23:25:36.092Z,84.30
2023-04-01T23:28:30.377Z,83.93
2023-04-01T23:30:59.399Z,83.52
2023-04-01T23:33:32.046Z,83.48
2023-04-01T23:36:06.471Z,83.62
2023-04-01T23:38:38.355Z,83.54
2023-04-01T23:41:08.947Z,83.28
2023-04-01T23:43:40.014Z,83.64
2023-04-01T23:46:09.570Z,84.15
2023-04-01T23:48:41.970Z,84.46
2023-04-01T23:51:19.409Z,84.48
2023-04-01T23:53:57.394Z,84.35
2023-04-01T23:56:38.778Z,84.20
2023-04-01T23:59:15.176Z,84.20
